Current | Forecast
Updated: 2:30 AM CEST on May 28, 2017
Observed at Malaga, Spain
Temperature 21°C
Humidity 83%
Dew Point 18°C
Wind South at 9 km/h
Pressure 1017 hPa (Steady)
Conditions Mostly Cloudy
Visibility 10.0 kilometers
UV 0 out of 16
Clouds (FEW) : 457 m
Mostly Cloudy (BKN) : 914 m
Yesterday's Maximum 25°C
Yesterday's Minimum 18°C approx.
Yesterday's Cooling Degree Days 6 approx.
Sunrise7:01 AM CEST
Sunset9:30 PM CEST
Moon Rise9:47 AM CEST
Moon Set
Moon PhaseMoon Phase
Waxing Crescent
Raw METARMETAR LEMG 280030Z 17005KT 120V200 9999 FEW015 BKN030 21/18 Q1017 NOSIG


Monday
. High: 84° F.
Tuesday
. High: 84° F.
Wednesday
. High: 78° F.
Thursday
. High: 78° F.
Friday
. High: 75° F.
Saturday
. High: 82° F.
Sunday
. High: 82° F.
Monday
. High: 82° F.

Click here for Marine Information
Scientific forecaster discussion (NWS)

Units: English | Metric

Find the Weather for any City, State or Zipcode, or Country:

U.S. State List | Severe Weather | Tropical Storms | Ski Conditions
United States | Canada | Central America | South America | Asia | Europe | Australia | Africa | Islands

Weather Underground

© Copyright 2017
The Weather Company, LLC